Time;durP1;ratioP1;P1;durP2;ratioP2;P2;SDS_P1;SDS_P2;PMS_P1;PMS_P2;Temp;Humidity;BMP_temperature;BMP_pressure;BME280_temperature;BME280_humidity;BME280_pressure;Samples;Min_cycle;Max_cycle;Signal;HPM_P1;HPM_P2
2021/04/23 00:00:39;;;;;;;10.60;3.10;;;;;;;8.36;38.93;97336.75;5032825;28;20207;-70
2021/04/23 00:03:15;;;;;;;6.83;2.90;;;;;;;8.26;39.53;97339.34;5036570;28;20406;-70
2021/04/23 00:05:41;;;;;;;8.20;3.33;;;;;;;8.13;39.70;97328.31;5034495;28;20414;-70
2021/04/23 00:08:07;;;;;;;10.07;4.07;;;;;;;7.95;40.40;97331.59;5033712;28;20437;-70
2021/04/23 00:10:33;;;;;;;7.60;2.90;;;;;;;7.83;40.79;97332.63;5033534;28;20861;-71
2021/04/23 00:12:58;;;;;;;6.93;2.90;;;;;;;7.75;41.22;97338.50;5039116;28;20419;-70
2021/04/23 00:15:24;;;;;;;5.63;3.37;;;;;;;7.54;41.58;97338.56;5034456;28;20697;-71
2021/04/23 00:17:50;;;;;;;9.87;2.90;;;;;;;7.60;40.99;97342.41;5034028;28;20183;-71
2021/04/23 00:20:22;;;;;;;7.93;3.07;;;;;;;7.93;40.71;97343.94;5032162;28;20425;-70
2021/04/23 00:22:47;;;;;;;8.93;3.30;;;;;;;7.81;41.30;97340.59;5033662;28;20187;-71
2021/04/23 00:25:13;;;;;;;8.67;4.47;;;;;;;7.84;41.58;97342.94;5033915;28;20434;-71
2021/04/23 00:27:41;;;;;;;17.10;3.80;;;;;;;7.74;41.92;97338.66;5033823;28;20279;-73
2021/04/23 00:30:08;;;;;;;6.70;3.60;;;;;;;7.87;41.87;97335.81;5033387;28;20423;-71
2021/04/23 00:32:33;;;;;;;8.37;3.27;;;;;;;7.94;41.82;97335.16;5032566;28;20423;-70
2021/04/23 00:34:59;;;;;;;11.30;3.50;;;;;;;7.78;42.38;97340.03;5032588;28;20468;-69
2021/04/23 00:37:25;;;;;;;14.87;3.97;;;;;;;7.96;42.18;97332.41;5033570;28;20199;-71
2021/04/23 00:39:50;;;;;;;11.70;2.93;;;;;;;7.75;42.68;97342.91;5033603;28;20567;-70
2021/04/23 00:42:16;;;;;;;9.30;3.70;;;;;;;7.79;42.42;97344.28;5033150;28;20191;-70
2021/04/23 00:44:41;;;;;;;5.80;3.43;;;;;;;7.94;41.49;97339.56;5033577;28;20194;-72
2021/04/23 00:47:07;;;;;;;8.87;2.80;;;;;;;7.35;42.29;97344.50;5032572;28;20210;-71
2021/04/23 00:49:33;;;;;;;7.67;3.03;;;;;;;7.39;42.29;97340.69;5033723;28;20552;-70
2021/04/23 00:52:00;;;;;;;7.80;3.10;;;;;;;7.31;42.94;97343.94;5033495;28;20187;-70
2021/04/23 00:54:28;;;;;;;13.73;3.13;;;;;;;7.45;42.84;97345.38;5032086;28;20171;-71
2021/04/23 00:56:54;;;;;;;3.80;2.73;;;;;;;7.23;43.54;97346.34;5037155;28;20451;-71
2021/04/23 00:59:21;;;;;;;11.33;3.00;;;;;;;7.20;43.69;97342.19;5032161;28;20422;-72
2021/04/23 01:01:53;;;;;;;6.50;3.50;;;;;;;6.79;44.75;97349.06;5033087;28;20437;-71
2021/04/23 01:04:21;;;;;;;7.50;3.00;;;;;;;7.29;43.86;97339.81;5031471;28;20423;-71
2021/04/23 01:06:47;;;;;;;12.23;3.27;;;;;;;7.25;43.05;97333.19;5031232;28;20462;-71
2021/04/23 01:09:16;;;;;;;5.70;2.90;;;;;;;7.26;43.34;97334.84;5033401;28;20745;-70
2021/04/23 01:11:42;;;;;;;6.70;3.17;;;;;;;7.25;43.08;97331.38;5033113;28;20522;-70
2021/04/23 01:14:09;;;;;;;6.10;2.60;;;;;;;7.26;42.59;97334.84;5032956;28;20426;-69
2021/04/23 01:16:35;;;;;;;6.37;2.93;;;;;;;7.35;42.01;97334.06;5032731;28;20500;-69
2021/04/23 01:19:01;;;;;;;5.43;2.60;;;;;;;7.45;42.40;97332.31;5032117;28;20423;-70
2021/04/23 01:21:29;;;;;;;5.87;3.27;;;;;;;7.55;42.33;97334.19;5033217;28;20559;-70
2021/04/23 01:23:56;;;;;;;4.20;3.00;;;;;;;7.69;42.35;97336.41;5035818;28;20446;-70
2021/04/23 01:26:25;;;;;;;10.10;3.33;;;;;;;7.52;42.20;97335.25;5037664;28;20458;-70
2021/04/23 01:28:53;;;;;;;11.80;3.23;;;;;;;7.33;42.66;97336.81;5032786;28;20430;-71
2021/04/23 01:31:22;;;;;;;5.93;3.10;;;;;;;6.98;43.13;97334.50;5032858;28;20419;-71
2021/04/23 01:33:51;;;;;;;11.27;3.37;;;;;;;6.83;43.64;97336.59;5032617;28;20415;-72
2021/04/23 01:36:17;;;;;;;8.57;3.30;;;;;;;6.88;43.60;97330.06;5033175;28;20447;-70
2021/04/23 01:38:45;;;;;;;4.80;2.40;;;;;;;7.08;43.12;97335.41;5033188;28;20419;-71
2021/04/23 01:41:11;;;;;;;4.93;2.90;;;;;;;7.07;42.74;97339.81;5032028;28;20422;-71
2021/04/23 01:43:36;;;;;;;8.23;2.70;;;;;;;7.16;42.89;97340.81;5032601;28;20777;-71
2021/04/23 01:46:05;;;;;;;8.03;3.27;;;;;;;7.20;43.01;97339.59;5031782;28;20775;-71
2021/04/23 01:48:31;;;;;;;8.37;3.70;;;;;;;7.29;42.11;97350.22;5015152;28;20505;-71
2021/04/23 01:50:57;;;;;;;12.93;3.60;;;;;;;7.16;42.71;97347.81;5032269;28;20519;-71
2021/04/23 01:53:22;;;;;;;7.47;3.13;;;;;;;7.19;42.38;97350.16;5033835;28;20496;-71
2021/04/23 01:55:48;;;;;;;13.17;3.80;;;;;;;7.29;42.41;97352.84;5033750;28;20805;-71
2021/04/23 01:58:14;;;;;;;11.50;3.00;;;;;;;7.16;42.50;97353.00;5032348;28;20171;-71
2021/04/23 02:00:43;;;;;;;8.63;3.70;;;;;;;6.84;43.16;97356.50;5034886;28;20179;-70
2021/04/23 02:03:10;;;;;;;9.30;3.83;;;;;;;6.58;43.97;97351.63;5033375;28;20257;-70
2021/04/23 02:05:36;;;;;;;10.90;3.50;;;;;;;6.78;44.04;97351.78;5032592;28;20933;-71
2021/04/23 02:08:04;;;;;;;6.47;3.77;;;;;;;6.81;43.92;97357.56;5033933;28;20828;-72
2021/04/23 02:10:34;;;;;;;12.83;4.10;;;;;;;6.93;43.54;97354.94;5018126;28;20430;-71
2021/04/23 02:12:59;;;;;;;8.67;3.03;;;;;;;7.03;43.21;97355.81;5040715;28;20515;-71
2021/04/23 02:15:27;;;;;;;7.80;3.20;;;;;;;7.02;43.52;97360.19;5043900;28;20975;-70
2021/04/23 02:17:54;;;;;;;10.70;3.07;;;;;;;7.07;42.93;97357.19;5052456;28;20261;-71
2021/04/23 02:20:22;;;;;;;8.30;2.77;;;;;;;7.06;43.07;97360.75;5045698;28;20422;-71
2021/04/23 02:22:49;;;;;;;6.83;3.03;;;;;;;7.05;42.95;97354.72;5045073;28;20980;-70
2021/04/23 02:25:16;;;;;;;11.40;3.27;;;;;;;6.77;44.16;97353.56;5033859;28;20411;-71
2021/04/23 02:27:42;;;;;;;5.17;3.00;;;;;;;6.85;43.72;97361.56;5048573;28;20561;-72
2021/04/23 02:30:10;;;;;;;10.83;3.67;;;;;;;6.87;43.66;97362.28;5047579;28;21080;-71
2021/04/23 02:32:36;;;;;;;9.87;3.00;;;;;;;6.78;43.64;97357.81;5047776;28;20183;-71
2021/04/23 02:35:06;;;;;;;9.27;4.43;;;;;;;6.68;44.21;97367.34;5031743;28;20431;-72
2021/04/23 02:37:33;;;;;;;36.20;13.93;;;;;;;6.49;44.80;97361.00;5014342;28;20214;-71
2021/04/23 02:39:59;;;;;;;23.80;5.30;;;;;;;6.63;44.54;97364.28;5031009;28;20417;-70
2021/04/23 02:42:25;;;;;;;13.37;3.80;;;;;;;6.75;44.27;97365.88;5031926;28;20415;-72
2021/04/23 02:44:50;;;;;;;6.67;3.60;;;;;;;6.44;44.68;97366.56;5032114;28;20226;-70
2021/04/23 02:47:16;;;;;;;9.43;3.70;;;;;;;6.36;44.89;97363.75;5032168;28;20564;-71
2021/04/23 02:49:42;;;;;;;8.17;3.60;;;;;;;6.42;45.04;97367.66;5030853;28;20184;-70
2021/04/23 02:52:07;;;;;;;17.53;4.23;;;;;;;6.56;44.92;97367.34;5017126;28;20197;-71
2021/04/23 02:54:33;;;;;;;30.50;7.30;;;;;;;6.56;45.00;97369.97;5031864;28;20259;-71
2021/04/23 02:56:59;;;;;;;23.90;4.73;;;;;;;6.63;44.35;97377.28;5031869;28;20576;-71
2021/04/23 02:59:24;;;;;;;7.73;4.13;;;;;;;6.71;44.42;97374.88;5032387;28;20236;-70
2021/04/23 03:01:52;;;;;;;7.60;3.43;;;;;;;6.68;44.28;97375.16;5031315;28;20184;-70
2021/04/23 03:04:18;;;;;;;15.87;3.90;;;;;;;6.67;44.43;97366.50;5032689;28;20184;-70
2021/04/23 03:06:44;;;;;;;14.63;3.20;;;;;;;6.65;44.78;97378.00;5031749;28;20454;-70
2021/04/23 03:09:09;;;;;;;12.30;3.60;;;;;;;6.50;44.90;97375.66;5047277;28;20627;-71
2021/04/23 03:11:38;;;;;;;9.67;3.80;;;;;;;6.50;45.12;97369.63;5031342;28;20176;-70
2021/04/23 03:14:04;;;;;;;12.10;3.83;;;;;;;6.44;45.05;97366.56;5030860;28;20180;-70
2021/04/23 03:16:31;;;;;;;9.63;3.80;;;;;;;6.43;45.56;97371.88;5032850;28;20982;-70
2021/04/23 03:18:57;;;;;;;6.20;3.40;;;;;;;6.36;45.44;97368.97;5036156;28;20961;-71
2021/04/23 03:21:25;;;;;;;8.93;3.53;;;;;;;6.30;45.78;97375.47;5035152;28;20430;-70
2021/04/23 03:23:51;;;;;;;21.60;5.23;;;;;;;6.32;45.96;97371.91;5035626;28;20187;-70
2021/04/23 03:26:19;;;;;;;6.90;3.63;;;;;;;6.51;45.33;97381.69;5035126;28;20884;-71
2021/04/23 03:28:44;;;;;;;8.40;3.90;;;;;;;6.39;45.62;97378.31;5035315;28;20187;-71
2021/04/23 03:31:11;;;;;;;12.80;4.37;;;;;;;6.44;45.46;97376.16;5033368;28;21010;-70
2021/04/23 03:33:38;;;;;;;10.50;3.80;;;;;;;5.91;46.64;97384.59;5035093;28;20180;-69
2021/04/23 03:36:04;;;;;;;11.20;3.80;;;;;;;5.78;47.59;97382.13;5050648;28;20439;-70
2021/04/23 03:38:32;;;;;;;10.97;3.80;;;;;;;5.94;47.03;97385.16;5033389;28;20422;-70
2021/04/23 03:40:58;;;;;;;13.30;4.27;;;;;;;5.92;47.39;97381.03;5034995;28;20509;-70
2021/04/23 03:43:24;;;;;;;7.83;3.40;;;;;;;6.11;46.85;97381.28;5030704;28;20430;-70
2021/04/23 03:45:51;;;;;;;8.50;3.90;;;;;;;6.19;46.87;97379.88;5034176;28;20446;-70
2021/04/23 03:48:17;;;;;;;5.27;3.73;;;;;;;5.89;47.81;97389.91;5042118;28;20550;-70
2021/04/23 03:50:43;;;;;;;10.03;3.87;;;;;;;5.92;47.89;97391.44;5050254;28;20423;-70
2021/04/23 03:53:11;;;;;;;11.73;3.53;;;;;;;6.05;47.53;97391.38;5029145;28;20187;-70
2021/04/23 03:55:39;;;;;;;10.07;4.60;;;;;;;5.99;47.66;97388.28;5035011;28;20431;-70
2021/04/23 03:58:06;;;;;;;12.50;4.33;;;;;;;5.87;47.82;97385.75;5035580;28;20422;-70
2021/04/23 04:00:59;;;;;;;13.97;4.53;;;;;;;6.00;47.75;97386.50;5038172;28;20487;-70
2021/04/23 04:03:26;;;;;;;7.97;4.30;;;;;;;6.03;48.00;97398.47;5029330;28;20581;-70
2021/04/23 04:05:52;;;;;;;16.83;4.20;;;;;;;6.05;47.55;97391.38;5034526;28;20963;-71
2021/04/23 04:08:18;;;;;;;10.13;4.80;;;;;;;5.99;47.15;97393.50;5035213;28;20437;-69
2021/04/23 04:10:45;;;;;;;9.90;3.87;;;;;;;5.94;48.03;97397.38;5034460;28;20433;-70
2021/04/23 04:13:11;;;;;;;13.93;4.70;;;;;;;5.97;47.92;97390.13;5032749;28;20430;-70
2021/04/23 04:15:37;;;;;;;9.33;4.00;;;;;;;5.81;47.90;97405.25;5033859;28;20430;-70
2021/04/23 04:18:04;;;;;;;9.07;5.10;;;;;;;5.77;48.27;97403.88;5034789;28;20784;-70
2021/04/23 04:20:32;;;;;;;20.00;4.80;;;;;;;5.80;48.12;97409.66;5033897;28;20831;-70
2021/04/23 04:22:58;;;;;;;8.80;3.87;;;;;;;5.81;47.92;97406.09;5032721;28;20437;-71
2021/04/23 04:25:30;;;;;;;14.00;4.53;;;;;;;5.88;47.79;97405.63;5034093;28;20913;-69
2021/04/23 04:27:57;;;;;;;16.80;4.23;;;;;;;5.91;47.52;97405.41;5033320;28;20553;-71
2021/04/23 04:30:24;;;;;;;8.67;4.10;;;;;;;5.91;47.57;97408.00;5033702;28;20425;-70
2021/04/23 04:32:51;;;;;;;10.33;4.00;;;;;;;6.03;47.77;97414.06;5034947;28;20438;-70
2021/04/23 04:35:17;;;;;;;11.60;4.70;;;;;;;5.84;48.04;97413.69;5039233;28;20454;-71
2021/04/23 04:37:43;;;;;;;12.67;3.90;;;;;;;5.95;47.64;97412.84;5034520;28;20466;-71
2021/04/23 04:40:09;;;;;;;14.63;3.87;;;;;;;5.85;48.42;97419.69;5035009;28;20193;-71
2021/04/23 04:42:35;;;;;;;7.50;3.57;;;;;;;5.89;47.94;97418.53;5034882;28;20423;-70
2021/04/23 04:45:03;;;;;;;11.10;4.93;;;;;;;5.88;48.60;97419.47;5033239;28;20433;-70
2021/04/23 04:47:30;;;;;;;14.20;3.60;;;;;;;5.97;47.67;97416.16;5034443;28;20462;-71
2021/04/23 04:49:57;;;;;;;12.33;4.40;;;;;;;5.97;47.42;97418.75;5015899;28;20900;-70
2021/04/23 04:52:23;;;;;;;11.43;4.30;;;;;;;6.01;47.55;97419.38;5041592;28;20426;-71
2021/04/23 04:54:49;;;;;;;9.23;4.60;;;;;;;6.12;47.61;97423.75;5034518;28;20434;-70
2021/04/23 04:57:15;;;;;;;12.30;4.33;;;;;;;6.30;47.39;97430.13;5033815;28;20837;-71
2021/04/23 04:59:45;;;;;;;15.93;4.80;;;;;;;6.37;47.31;97430.47;5048651;28;20216;-70
2021/04/23 05:02:11;;;;;;;31.60;5.00;;;;;;;6.52;47.04;97432.81;5033457;28;20180;-70
2021/04/23 05:04:36;;;;;;;18.37;4.73;;;;;;;6.54;46.33;97430.94;5043449;28;20427;-70
2021/04/23 05:07:02;;;;;;;9.87;4.10;;;;;;;6.63;46.72;97438.00;5032813;28;20465;-70
2021/04/23 05:09:27;;;;;;;10.97;4.10;;;;;;;6.89;46.46;97435.94;5033187;28;20210;-70
2021/04/23 05:11:53;;;;;;;7.87;4.07;;;;;;;7.07;45.88;97435.38;5033372;28;20535;-71
2021/04/23 05:14:19;;;;;;;8.97;3.90;;;;;;;7.20;45.17;97441.25;5032995;28;20630;-71
2021/04/23 05:16:45;;;;;;;17.63;4.60;;;;;;;7.36;44.94;97440.00;5033176;28;20287;-70
2021/04/23 05:19:10;;;;;;;8.53;4.70;;;;;;;7.52;44.79;97442.19;5048489;28;20285;-71
2021/04/23 05:21:37;;;;;;;15.93;4.90;;;;;;;7.65;44.52;97445.41;5032749;28;20208;-70
2021/04/23 05:24:03;;;;;;;9.30;4.73;;;;;;;7.83;44.72;97444.84;5024418;28;20238;-71
2021/04/23 05:26:29;;;;;;;11.10;4.43;;;;;;;8.00;44.11;97454.69;5032612;28;20462;-70
2021/04/23 05:28:54;;;;;;;7.93;4.10;;;;;;;8.15;43.56;97452.56;5033102;28;20430;-71
2021/04/23 05:31:20;;;;;;;18.10;4.50;;;;;;;8.28;43.60;97457.53;5033070;28;20259;-71
2021/04/23 05:33:46;;;;;;;11.13;4.43;;;;;;;8.37;43.30;97452.50;5032316;28;20192;-72
2021/04/23 05:36:11;;;;;;;6.93;4.17;;;;;;;8.55;43.11;97457.97;5032801;28;20204;-71
2021/04/23 05:38:37;;;;;;;7.47;4.20;;;;;;;8.68;42.13;97462.94;5032359;28;20592;-73
2021/04/23 05:41:02;;;;;;;9.03;3.90;;;;;;;8.83;42.19;97461.59;5031836;28;20179;-71
2021/04/23 05:43:28;;;;;;;10.20;4.80;;;;;;;8.88;41.00;97459.38;5032844;28;20179;-72
2021/04/23 05:45:54;;;;;;;7.13;4.30;;;;;;;9.06;40.80;97467.41;5031943;28;20227;-71
2021/04/23 05:48:20;;;;;;;11.40;4.37;;;;;;;9.25;40.92;97467.56;5031765;28;20967;-71
2021/04/23 05:50:47;;;;;;;21.40;5.23;;;;;;;9.34;40.47;97469.34;5031467;28;20191;-71
2021/04/23 05:53:13;;;;;;;13.50;4.87;;;;;;;9.60;40.42;97474.00;5036550;28;20223;-71
2021/04/23 05:55:38;;;;;;;12.87;4.77;;;;;;;9.74;39.49;97477.97;5032195;28;20860;-70
2021/04/23 05:58:05;;;;;;;9.10;3.87;;;;;;;9.89;38.96;97473.16;5048937;28;20199;-70
2021/04/23 06:00:33;;;;;;;6.57;4.00;;;;;;;9.94;38.50;97471.75;5035012;28;20202;-71
2021/04/23 06:03:00;;;;;;;7.70;3.93;;;;;;;10.07;38.66;97475.84;5025080;28;20510;-70
2021/04/23 06:05:28;;;;;;;12.57;4.13;;;;;;;10.39;38.31;97472.03;5031689;28;20434;-71
2021/04/23 06:08:02;;;;;;;10.40;4.43;;;;;;;10.74;37.68;97478.34;5032585;28;21092;-71
2021/04/23 06:10:28;;;;;;;8.70;3.97;;;;;;;10.97;36.74;97480.53;5039749;28;20452;-70
2021/04/23 06:12:55;;;;;;;11.13;4.30;;;;;;;11.17;36.32;97474.22;5033574;28;20430;-71
2021/04/23 06:15:21;;;;;;;10.30;4.50;;;;;;;11.30;35.62;97475.63;5033097;28;20426;-71
2021/04/23 06:17:47;;;;;;;16.63;4.40;;;;;;;11.36;36.81;97475.00;5032856;28;20451;-70
2021/04/23 06:20:18;;;;;;;11.90;4.30;;;;;;;11.31;36.16;97480.72;5039839;28;20426;-72
2021/04/23 06:22:44;;;;;;;11.23;3.83;;;;;;;11.60;35.69;97479.66;5032314;28;20510;-70
2021/04/23 06:25:13;;;;;;;9.47;4.40;;;;;;;11.92;35.50;97482.69;5032754;28;20438;-69
2021/04/23 06:27:39;;;;;;;16.70;4.77;;;;;;;11.93;35.06;97485.13;5033080;28;20212;-69
2021/04/23 06:30:09;;;;;;;11.97;4.13;;;;;;;11.99;34.93;97486.34;5032604;28;20425;-73
2021/04/23 06:32:35;;;;;;;14.60;4.17;;;;;;;11.59;35.74;97491.13;5032589;28;20485;-70
2021/04/23 06:35:00;;;;;;;7.00;4.23;;;;;;;11.80;35.19;97484.72;5030588;28;20431;-69
2021/04/23 06:37:26;;;;;;;12.47;5.23;;;;;;;12.12;35.42;97492.03;5031238;28;20219;-70
2021/04/23 06:39:52;;;;;;;8.20;3.97;;;;;;;12.25;35.17;97494.25;5031811;28;20187;-70
2021/04/23 06:42:17;;;;;;;17.97;4.63;;;;;;;12.29;34.70;97494.75;5032924;28;20195;-71
2021/04/23 06:44:43;;;;;;;12.73;4.27;;;;;;;12.51;34.43;97500.44;5048500;28;20729;-70
2021/04/23 06:47:08;;;;;;;14.10;4.60;;;;;;;12.21;34.17;97497.34;5031360;28;20732;-71
2021/04/23 06:49:34;;;;;;;8.90;4.80;;;;;;;12.08;35.12;97501.22;5032527;28;20210;-71
2021/04/23 06:52:00;;;;;;;13.47;5.30;;;;;;;11.36;36.09;97503.88;5030690;28;20176;-69
2021/04/23 06:54:25;;;;;;;11.97;5.37;;;;;;;11.31;36.78;97508.78;5034480;28;20666;-71
2021/04/23 06:56:52;;;;;;;14.47;5.27;;;;;;;11.99;35.51;97510.00;5031599;28;20246;-71
2021/04/23 06:59:18;;;;;;;12.33;4.77;;;;;;;10.88;37.05;97506.69;5031781;28;20838;-69
2021/04/23 07:01:43;;;;;;;13.47;4.87;;;;;;;10.52;37.96;97506.59;5031424;28;20434;-71
2021/04/23 07:04:09;;;;;;;13.07;4.77;;;;;;;11.68;36.18;97510.41;5032167;28;20638;-71
2021/04/23 07:06:39;;;;;;;13.60;5.20;;;;;;;11.89;35.67;97509.25;5031959;28;20211;-71
2021/04/23 07:09:05;;;;;;;13.07;4.57;;;;;;;12.48;34.65;97511.25;5032706;28;20207;-71
2021/04/23 07:11:31;;;;;;;13.33;4.60;;;;;;;12.85;34.52;97508.31;5030596;28;20799;-70
2021/04/23 07:13:57;;;;;;;15.47;5.10;;;;;;;12.87;33.99;97505.50;5031646;28;20421;-70
2021/04/23 07:16:22;;;;;;;11.97;5.10;;;;;;;12.85;33.93;97513.56;5030412;28;20206;-72
2021/04/23 07:18:48;;;;;;;13.67;4.83;;;;;;;13.04;33.67;97515.09;5031477;28;20194;-70
2021/04/23 07:21:13;;;;;;;12.20;4.40;;;;;;;13.27;33.20;97503.97;5031247;28;20652;-71
2021/04/23 07:23:39;;;;;;;8.20;4.13;;;;;;;13.49;33.13;97518.34;5031361;28;20187;-70
2021/04/23 07:26:05;;;;;;;5.53;4.17;;;;;;;13.50;33.35;97514.72;5031977;28;20818;-72
2021/04/23 07:28:31;;;;;;;17.10;5.13;;;;;;;13.48;32.75;97518.53;5031147;28;20195;-69
2021/04/23 07:30:57;;;;;;;15.63;5.00;;;;;;;13.77;32.12;97515.41;5031087;28;20187;-71
2021/04/23 07:33:23;;;;;;;9.90;4.13;;;;;;;14.03;31.53;97516.19;5029522;28;20476;-72
2021/04/23 07:35:49;;;;;;;10.40;5.03;;;;;;;14.16;31.53;97519.13;5030617;28;20183;-69
2021/04/23 07:38:15;;;;;;;19.93;5.67;;;;;;;14.16;31.63;97521.78;5031717;28;20468;-70
2021/04/23 07:40:42;;;;;;;13.30;4.83;;;;;;;14.31;31.54;97516.63;5031220;28;20530;-71
2021/04/23 07:43:07;;;;;;;9.90;4.87;;;;;;;14.43;31.56;97519.75;5031273;28;20913;-71
2021/04/23 07:45:33;;;;;;;11.10;5.20;;;;;;;14.06;32.10;97518.50;5031116;28;20438;-70
2021/04/23 07:47:59;;;;;;;10.70;4.70;;;;;;;14.19;31.70;97518.81;5030171;28;20203;-69
2021/04/23 07:50:26;;;;;;;15.63;4.90;;;;;;;14.15;31.88;97522.75;5034084;28;20230;-71
2021/04/23 07:52:52;;;;;;;13.57;4.90;;;;;;;14.23;31.02;97522.75;5040091;28;20188;-70
2021/04/23 07:55:20;;;;;;;18.83;5.63;;;;;;;14.44;31.14;97521.38;5031492;28;20548;-71
2021/04/23 07:57:47;;;;;;;10.03;3.83;;;;;;;14.39;30.89;97529.81;5015336;28;20438;-70
2021/04/23 08:00:14;;;;;;;13.80;4.97;;;;;;;14.50;30.73;97520.69;5031414;28;20579;-70
2021/04/23 08:02:41;;;;;;;13.90;4.93;;;;;;;14.73;30.63;97520.00;5031287;28;20418;-71
2021/04/23 08:05:08;;;;;;;11.33;5.43;;;;;;;14.65;31.23;97525.28;5031511;28;21299;-69
2021/04/23 08:07:34;;;;;;;15.60;5.90;;;;;;;14.70;31.22;97518.53;5031964;28;20465;-69
2021/04/23 08:10:00;;;;;;;12.90;5.60;;;;;;;14.79;30.81;97519.31;5036735;28;20475;-70
2021/04/23 08:12:26;;;;;;;12.33;4.97;;;;;;;14.95;30.48;97517.59;5034366;28;20179;-69
2021/04/23 08:14:52;;;;;;;17.30;5.80;;;;;;;14.78;30.72;97520.31;5049356;28;20187;-69
2021/04/23 08:17:17;;;;;;;16.43;5.50;;;;;;;14.74;30.55;97521.66;5034061;28;20457;-68
2021/04/23 08:19:43;;;;;;;10.90;5.57;;;;;;;14.85;31.63;97518.66;5041547;28;20733;-70
2021/04/23 08:22:09;;;;;;;9.53;6.03;;;;;;;15.15;29.69;97518.81;5034679;28;20187;-71
2021/04/23 08:24:34;;;;;;;13.93;5.87;;;;;;;14.85;29.73;97518.66;5033711;28;20620;-69
2021/04/23 08:27:00;;;;;;;12.97;6.10;;;;;;;13.89;31.19;97515.88;5032973;28;20238;-70
2021/04/23 08:29:26;;;;;;;12.97;6.10;;;;;;;13.37;32.99;97514.34;5034440;28;20192;-71
2021/04/23 08:31:51;;;;;;;11.23;5.80;;;;;;;14.46;30.77;97524.69;5032248;28;20180;-71
2021/04/23 08:34:18;;;;;;;16.67;6.00;;;;;;;14.82;30.58;97529.53;5032779;28;20179;-71
2021/04/23 08:36:43;;;;;;;13.83;5.87;;;;;;;14.26;30.94;97522.41;5033157;28;20222;-70
2021/04/23 08:39:10;;;;;;;17.53;5.83;;;;;;;14.18;31.52;97519.81;5034827;28;20932;-70
2021/04/23 08:41:37;;;;;;;18.93;6.07;;;;;;;14.61;30.87;97516.06;5033086;28;20183;-70
2021/04/23 08:44:04;;;;;;;16.00;7.27;;;;;;;14.24;30.90;97511.19;5033011;28;20856;-70
2021/04/23 08:46:29;;;;;;;14.20;6.27;;;;;;;13.63;32.14;97516.84;5034560;28;20459;-70
2021/04/23 08:48:55;;;;;;;17.37;5.93;;;;;;;14.35;30.92;97522.41;5033930;28;20461;-71
2021/04/23 08:51:22;;;;;;;9.70;6.30;;;;;;;14.77;30.70;97516.03;5050233;28;20180;-71
2021/04/23 08:53:52;;;;;;;14.23;6.10;;;;;;;15.16;30.20;97514.34;5034262;28;20433;-69
2021/04/23 08:56:18;;;;;;;10.97;6.43;;;;;;;14.96;30.28;97524.53;5033295;28;20447;-69
2021/04/23 08:58:44;;;;;;;17.40;8.30;;;;;;;14.42;30.89;97523.38;5033450;28;20454;-69
2021/04/23 09:01:10;;;;;;;16.07;6.60;;;;;;;15.05;30.04;97524.31;5035130;28;20415;-70
2021/04/23 09:03:36;;;;;;;12.87;6.30;;;;;;;14.63;30.17;97521.97;5034043;28;20497;-70
2021/04/23 09:06:09;;;;;;;11.43;6.30;;;;;;;15.81;28.79;97515.72;5032189;28;20200;-70
2021/04/23 09:08:35;;;;;;;19.23;6.70;;;;;;;15.79;29.34;97517.69;5033263;28;20281;-68
2021/04/23 09:11:15;;;;;;;15.13;6.30;;;;;;;15.92;28.94;97524.22;5031328;28;20454;-69
2021/04/23 09:13:50;;;;;;;21.50;10.80;;;;;;;16.24;28.46;97520.47;5033300;28;20437;-69
2021/04/23 09:16:18;;;;;;;15.73;6.23;;;;;;;16.77;27.43;97514.28;5032281;28;20453;-70
2021/04/23 09:18:44;;;;;;;16.10;6.10;;;;;;;16.72;26.89;97514.81;5032519;28;20576;-70
2021/04/23 09:21:14;;;;;;;13.80;5.73;;;;;;;16.60;27.55;97518.94;5033127;28;20454;-69
2021/04/23 09:23:51;;;;;;;13.37;6.07;;;;;;;15.47;28.67;97519.59;5032832;28;20227;-71
2021/04/23 09:26:43;;;;;;;13.37;5.50;;;;;;;15.77;27.59;97516.25;5033822;28;20512;-71
2021/04/23 09:29:22;;;;;;;10.40;5.97;;;;;;;14.47;29.14;97526.34;5024324;28;20470;-71
2021/04/23 09:31:47;;;;;;;11.53;5.90;;;;;;;14.89;29.04;97525.19;5033267;28;20465;-69
2021/04/23 09:34:15;;;;;;;13.83;5.77;;;;;;;15.92;27.53;97519.78;5032981;28;20857;-69
2021/04/23 09:36:46;;;;;;;18.20;6.37;;;;;;;15.48;28.07;97517.78;5032275;28;20208;-70
2021/04/23 09:39:14;;;;;;;18.50;6.30;;;;;;;15.30;28.10;97520.69;5031056;28;20429;-69
2021/04/23 09:42:02;;;;;;;17.17;6.60;;;;;;;16.04;27.31;97517.53;5032820;28;20989;-69
2021/04/23 09:44:40;;;;;;;12.10;6.10;;;;;;;16.33;26.93;97520.38;5035620;28;20422;-69
2021/04/23 09:47:13;;;;;;;11.60;6.27;;;;;;;15.65;27.87;97521.94;5024915;28;20476;-70
2021/04/23 09:49:41;;;;;;;12.70;5.87;;;;;;;14.96;28.41;97519.25;5033038;28;20490;-70
2021/04/23 09:52:09;;;;;;;14.00;6.00;;;;;;;14.96;28.82;97520.06;5031978;28;20438;-69
2021/04/23 09:54:35;;;;;;;11.47;5.50;;;;;;;15.51;27.87;97520.06;5031591;28;20429;-70
2021/04/23 09:57:11;;;;;;;18.27;6.47;;;;;;;16.20;27.29;97521.00;5022010;28;20557;-69
2021/04/23 09:59:46;;;;;;;14.83;6.73;;;;;;;16.97;25.96;97521.66;5028450;28;20418;-71
2021/04/23 10:02:14;;;;;;;12.70;6.03;;;;;;;17.44;25.66;97511.56;5035795;28;20444;-70
2021/04/23 10:04:39;;;;;;;14.33;6.00;;;;;;;17.09;25.71;97520.16;5029962;28;20488;-71
2021/04/23 10:07:12;;;;;;;15.67;6.10;;;;;;;16.68;26.43;97518.84;5031053;28;20454;-70
2021/04/23 10:09:55;;;;;;;12.30;6.07;;;;;;;17.35;25.84;97519.66;5032288;28;20198;-71
2021/04/23 10:12:29;;;;;;;11.10;5.47;;;;;;;17.79;25.02;97511.69;5031897;28;20479;-70
2021/04/23 10:15:06;;;;;;;11.97;5.97;;;;;;;16.86;25.69;97520.28;5032748;28;20418;-71
2021/04/23 10:17:32;;;;;;;15.83;6.20;;;;;;;16.57;25.89;97519.28;5032444;28;21107;-68
2021/04/23 10:19:58;;;;;;;14.53;6.27;;;;;;;16.51;25.94;97515.56;5031798;28;20455;-70
2021/04/23 10:22:25;;;;;;;19.00;6.70;;;;;;;16.90;25.93;97518.88;5032134;28;20426;-70
2021/04/23 10:24:51;;;;;;;15.17;6.87;;;;;;;16.88;25.79;97520.94;5031563;28;20433;-70
2021/04/23 10:27:18;;;;;;;12.93;6.67;;;;;;;15.72;27.01;97524.72;5031215;28;20469;-70
2021/04/23 10:29:45;;;;;;;10.37;5.60;;;;;;;16.94;25.54;97517.56;5030494;28;20484;-72
2021/04/23 10:32:12;;;;;;;17.43;5.93;;;;;;;17.52;24.64;97513.28;5031471;28;20434;-70
2021/04/23 10:34:38;;;;;;;9.33;5.60;;;;;;;18.11;23.98;97507.69;5032927;28;20458;-69
2021/04/23 10:37:04;;;;;;;15.70;5.93;;;;;;;17.83;24.24;97512.94;5031673;28;20469;-70
2021/04/23 10:39:35;;;;;;;22.93;6.53;;;;;;;16.89;25.34;97519.88;5032265;28;20184;-71
2021/04/23 10:42:02;;;;;;;9.20;5.57;;;;;;;17.13;25.31;97505.56;5031053;28;20517;-69
2021/04/23 10:44:51;;;;;;;6.67;5.40;;;;;;;17.47;24.77;97513.84;5046672;28;20908;-71
2021/04/23 10:47:33;;;;;;;11.47;5.90;;;;;;;18.08;23.98;97507.25;5026007;28;20983;-69
2021/04/23 10:50:10;;;;;;;13.37;5.20;;;;;;;18.42;22.19;97508.28;5022460;28;20414;-70
2021/04/23 10:52:56;;;;;;;19.30;5.20;;;;;;;18.14;22.80;97505.66;5031940;28;20428;-69
2021/04/23 10:55:35;;;;;;;14.10;5.80;;;;;;;17.86;22.80;97512.56;5032354;28;20433;-70
2021/04/23 10:58:01;;;;;;;5.87;4.67;;;;;;;17.96;23.24;97498.97;5040180;28;20516;-70
2021/04/23 11:00:34;;;;;;;11.13;4.57;;;;;;;17.93;23.06;97505.47;5049124;28;20525;-70
2021/04/23 11:03:28;;;;;;;16.97;7.00;;;;;;;18.24;23.19;97496.34;5037167;28;20184;-70
2021/04/23 11:05:59;;;;;;;13.17;5.57;;;;;;;18.17;23.61;97497.31;5032755;28;20415;-69
2021/04/23 11:08:27;;;;;;;12.07;5.87;;;;;;;18.82;22.29;97492.56;5032096;28;20448;-70
2021/04/23 11:11:02;;;;;;;16.60;6.37;;;;;;;18.55;22.78;97495.09;5031763;28;20422;-69
2021/04/23 11:13:31;;;;;;;15.20;5.10;;;;;;;17.98;24.01;97501.47;5032118;28;20522;-69
2021/04/23 11:16:25;;;;;;;8.83;5.50;;;;;;;18.65;23.01;97497.38;5031657;28;20509;-69
2021/04/23 11:18:52;;;;;;;15.13;5.60;;;;;;;18.67;22.32;97498.03;5031285;28;20770;-70
2021/04/23 11:21:30;;;;;;;12.17;5.40;;;;;;;19.09;22.32;97490.03;5031572;28;20513;-70
2021/04/23 11:24:17;;;;;;;8.73;5.13;;;;;;;18.67;22.16;97497.19;5031851;28;20438;-70
2021/04/23 11:27:00;;;;;;;9.67;5.23;;;;;;;18.98;21.42;97490.63;5013091;28;20466;-69
2021/04/23 11:29:32;;;;;;;9.67;5.10;;;;;;;19.47;20.85;97484.19;5030846;28;20430;-72
2021/04/23 11:32:22;;;;;;;13.73;5.17;;;;;;;19.10;21.32;97486.38;5031086;28;20916;-69
2021/04/23 11:34:54;;;;;;;11.90;5.33;;;;;;;19.49;20.79;97487.47;5029327;28;20577;-70